TimeEST,TemperatureF,Dew PointF,Humidity,Sea Level PressureIn,VisibilityMPH,Wind Direction,Wind SpeedMPH,Gust SpeedMPH,PrecipitationIn,Events,Conditions,WindDirDegrees,DateUTC
12:00 AM,46.4,44.6,93,30.19,3.0,South,4.6,-,0.01,Rain,Light Rain,180,2013-11-22 05:00:00
12:07 AM,46.4,44.6,93,30.19,3.0,South,5.8,-,0.01,,Overcast,180,2013-11-22 05:07:00
12:21 AM,46.4,44.6,93,30.19,2.5,South,6.9,-,0.01,,Overcast,180,2013-11-22 05:21:00
12:38 AM,46.4,44.6,93,30.18,2.0,South,6.9,-,0.01,,Overcast,190,2013-11-22 05:38:00
12:53 AM,46.0,45.0,96,30.18,2.5,South,5.8,-,0.01,,Overcast,190,2013-11-22 05:53:00
1:00 AM,46.4,44.6,93,30.17,3.0,South,6.9,-,N/A,,Overcast,190,2013-11-22 06:00:00
1:53 AM,46.9,45.0,93,30.17,4.0,SSW,8.1,-,N/A,,Overcast,210,2013-11-22 06:53:00
2:14 AM,46.4,46.4,100,30.16,2.0,SSW,6.9,-,0.01,,Overcast,210,2013-11-22 07:14:00
2:53 AM,48.0,46.0,93,30.17,1.8,SW,5.8,-,0.01,Rain,Light Rain,230,2013-11-22 07:53:00
3:04 AM,48.2,46.4,93,30.16,2.0,WSW,4.6,-,0.00,,Overcast,240,2013-11-22 08:04:00
3:46 AM,48.2,46.4,93,30.15,3.0,WSW,6.9,-,0.01,,Overcast,240,2013-11-22 08:46:00
3:53 AM,48.0,46.0,93,30.16,3.0,SW,5.8,-,0.01,,Overcast,230,2013-11-22 08:53:00
4:40 AM,48.2,46.4,93,30.15,2.5,SW,4.6,-,N/A,,Overcast,230,2013-11-22 09:40:00
4:53 AM,48.0,46.0,93,30.16,2.5,SW,5.8,-,N/A,,Overcast,220,2013-11-22 09:53:00
5:53 AM,48.0,46.0,93,30.16,2.5,West,5.8,-,N/A,,Overcast,270,2013-11-22 10:53:00
5:58 AM,48.2,46.4,93,30.15,3.0,West,5.8,-,N/A,,Overcast,260,2013-11-22 10:58:00
6:53 AM,48.0,46.0,93,30.16,6.0,WNW,5.8,-,N/A,,Overcast,300,2013-11-22 11:53:00
7:18 AM,46.4,44.6,93,30.15,8.0,WNW,8.1,-,N/A,,Overcast,300,2013-11-22 12:18:00
7:29 AM,46.4,44.6,93,30.15,9.0,NW,6.9,-,N/A,,Overcast,310,2013-11-22 12:29:00
7:53 AM,46.9,44.1,90,30.17,8.0,West,5.8,-,N/A,,Overcast,280,2013-11-22 12:53:00
8:16 AM,46.4,44.6,93,30.17,6.0,West,6.9,-,N/A,,Overcast,270,2013-11-22 13:16:00
8:41 AM,46.4,44.6,93,30.17,6.0,West,8.1,-,N/A,,Overcast,280,2013-11-22 13:41:00
8:53 AM,46.9,45.0,93,30.18,5.0,West,6.9,-,0.00,Rain,Light Rain,280,2013-11-22 13:53:00
9:15 AM,46.4,44.6,93,30.17,5.0,WNW,5.8,-,0.00,Rain,Light Rain,290,2013-11-22 14:15:00
9:37 AM,48.2,44.6,87,30.16,6.0,WNW,4.6,-,0.00,,Overcast,290,2013-11-22 14:37:00
9:53 AM,46.9,44.1,90,30.20,6.0,West,6.9,-,0.00,Rain,Light Rain,260,2013-11-22 14:53:00
10:16 AM,46.4,44.6,93,30.19,5.0,West,9.2,-,0.01,Rain,Light Rain,270,2013-11-22 15:16:00
10:48 AM,46.4,44.6,93,30.19,4.0,West,8.1,-,0.01,,Overcast,270,2013-11-22 15:48:00
10:53 AM,46.9,45.0,93,30.21,4.0,West,6.9,-,0.01,,Overcast,270,2013-11-22 15:53:00
11:13 AM,48.2,44.6,87,30.20,3.0,West,8.1,-,N/A,,Overcast,280,2013-11-22 16:13:00
11:18 AM,46.4,44.6,93,30.19,2.5,West,10.4,-,N/A,,Overcast,280,2013-11-22 16:18:00
11:53 AM,46.9,43.0,86,30.20,4.0,WNW,11.5,-,0.00,,Overcast,300,2013-11-22 16:53:00
12:01 PM,46.4,42.8,87,30.18,4.0,WNW,12.7,-,N/A,,Overcast,300,2013-11-22 17:01:00
12:29 PM,46.4,42.8,87,30.19,5.0,WNW,13.8,-,N/A,,Haze,290,2013-11-22 17:29:00
12:53 PM,46.0,41.0,83,30.20,5.0,WNW,13.8,-,N/A,,Haze,290,2013-11-22 17:53:00
1:16 PM,44.6,41.0,87,30.20,5.0,WNW,16.1,-,N/A,,Overcast,300,2013-11-22 18:16:00
1:51 PM,44.6,39.2,81,30.21,2.0,NW,24.2,31.1,0.00,Rain,Light Rain,310,2013-11-22 18:51:00
1:53 PM,43.0,39.9,89,30.22,2.5,NW,25.3,31.1,0.00,Rain,Light Rain,310,2013-11-22 18:53:00
2:00 PM,42.8,39.2,87,30.22,6.0,NW,19.6,31.1,0.00,Rain,Light Rain,320,2013-11-22 19:00:00
2:53 PM,41.0,36.0,82,30.25,10.0,NW,16.1,-,0.00,,Overcast,320,2013-11-22 19:53:00
3:00 PM,41.0,35.6,81,30.23,10.0,NNW,16.1,-,N/A,,Overcast,330,2013-11-22 20:00:00
3:30 PM,39.2,33.8,81,30.25,10.0,NNW,16.1,26.5,N/A,,Overcast,330,2013-11-22 20:30:00
3:53 PM,39.0,32.0,76,30.27,10.0,NNW,18.4,25.3,N/A,,Overcast,330,2013-11-22 20:53:00
4:04 PM,39.2,32.0,75,30.26,10.0,NNW,12.7,21.9,N/A,,Overcast,330,2013-11-22 21:04:00
4:13 PM,39.2,30.2,70,30.26,10.0,NNW,17.3,26.5,N/A,,Overcast,340,2013-11-22 21:13:00
4:53 PM,37.9,32.0,79,30.31,10.0,NW,15.0,21.9,N/A,,Overcast,320,2013-11-22 21:53:00
5:53 PM,37.9,28.9,70,30.35,10.0,NNW,16.1,26.5,N/A,,Overcast,340,2013-11-22 22:53:00
6:19 PM,37.4,28.4,70,30.34,10.0,NNW,12.7,21.9,N/A,,Mostly Cloudy,330,2013-11-22 23:19:00
6:53 PM,36.0,27.0,70,30.36,10.0,NNW,10.4,-,N/A,,Clear,330,2013-11-22 23:53:00
7:53 PM,36.0,26.1,67,30.38,10.0,NNW,8.1,-,N/A,,Partly Cloudy,330,2013-11-23 00:53:00
8:53 PM,35.1,25.0,67,30.39,10.0,NNW,9.2,-,N/A,,Clear,330,2013-11-23 01:53:00
9:53 PM,34.0,24.1,67,30.38,10.0,NNW,5.8,-,N/A,,Clear,340,2013-11-23 02:53:00
10:53 PM,28.9,23.0,78,30.38,10.0,WNW,4.6,-,N/A,,Clear,290,2013-11-23 03:53:00
11:53 PM,28.0,24.1,85,30.40,10.0,West,4.6,-,N/A,,Clear,280,2013-11-23 04:53:00